AZU4061 SBCF-SBCT
Flight info
| Callsign | AZU4061 |
|---|---|
| Flight time | N/A |
| Altitude | 30000 |
| Route | DEUCA UZ21 VUNOX DCT ALBOK UZ85 RAXIT |
| Aircraft | E195/M-SDE3GILORVW/S |
Departure
| Time | 2026-05-01 11:22 |
|---|---|
| Airport | Tancredo Neves International Airport (SBCF) |
Arrival
| Time | N/A |
|---|---|
| Airport | Curitiba-Afonso Pena International Airport (SBCT) |
| Time | Latitude | Longitude | Altitude | Speed | Heading |
|---|---|---|---|---|---|
| 2026-05-01 11:12 | -19.64124 | -43.95761 | 2801 ft | 2 kts | 49° |
| 2026-05-01 11:12 | -19.64134 | -43.95774 | 2800 ft | 2 kts | 49° |
| 2026-05-01 11:13 | -19.64145 | -43.95787 | 2801 ft | 2 kts | 47° |
| 2026-05-01 11:13 | -19.64157 | -43.95800 | 2799 ft | 2 kts | 42° |
| 2026-05-01 11:13 | -19.64171 | -43.95810 | 2803 ft | 2 kts | 350° |
| 2026-05-01 11:13 | -19.64178 | -43.95807 | 2802 ft | 0 kts | 320° |
| 2026-05-01 11:17 | -19.64176 | -43.95809 | 2802 ft | 1 kts | 320° |
| 2026-05-01 11:17 | -19.64169 | -43.95815 | 2799 ft | 2 kts | 320° |
| 2026-05-01 11:17 | -19.64153 | -43.95829 | 2801 ft | 5 kts | 319° |
| 2026-05-01 11:17 | -19.64135 | -43.95868 | 2797 ft | 4 kts | 242° |
| 2026-05-01 11:18 | -19.64158 | -43.95884 | 2797 ft | 7 kts | 209° |
| 2026-05-01 11:18 | -19.64230 | -43.95854 | 2796 ft | 11 kts | 136° |
| 2026-05-01 11:18 | -19.64271 | -43.95813 | 2796 ft | 13 kts | 142° |
| 2026-05-01 11:18 | -19.64357 | -43.95743 | 2796 ft | 18 kts | 142° |
| 2026-05-01 11:19 | -19.64456 | -43.95647 | 2797 ft | 21 kts | 136° |
| 2026-05-01 11:19 | -19.64571 | -43.95568 | 2797 ft | 16 kts | 139° |
| 2026-05-01 11:19 | -19.64638 | -43.95474 | 2797 ft | 16 kts | 138° |
| 2026-05-01 11:19 | -19.64748 | -43.95457 | 2798 ft | 7 kts | 231° |
| 2026-05-01 11:20 | -19.64749 | -43.95459 | 2798 ft | 0 kts | 231° |
| 2026-05-01 11:20 | -19.64750 | -43.95460 | 2798 ft | 0 kts | 231° |
| 2026-05-01 11:20 | -19.64756 | -43.95470 | 2798 ft | 3 kts | 241° |
| 2026-05-01 11:21 | -19.64764 | -43.95505 | 2798 ft | 7 kts | 258° |
| 2026-05-01 11:21 | -19.64772 | -43.95561 | 2798 ft | 8 kts | 262° |
| 2026-05-01 11:21 | -19.64742 | -43.95609 | 2797 ft | 9 kts | 317° |
| 2026-05-01 11:21 | -19.64629 | -43.95717 | 2796 ft | 51 kts | 318° |
| 2026-05-01 11:22 | -19.64181 | -43.96113 | 2796 ft | 117 kts | 316° |
| 2026-05-01 11:22 | -19.63406 | -43.96842 | 2822 ft | 173 kts | 319° |
| 2026-05-01 11:22 | -19.62483 | -43.97674 | 3581 ft | 171 kts | 321° |
| 2026-05-01 11:22 | -19.61606 | -43.98532 | 4176 ft | 182 kts | 318° |
| 2026-05-01 11:23 | -19.60596 | -43.99515 | 4705 ft | 210 kts | 322° |
| 2026-05-01 11:23 | -19.59467 | -44.00627 | 5198 ft | 234 kts | 316° |
| 2026-05-01 11:23 | -19.58299 | -44.01965 | 5673 ft | 261 kts | 311° |
| 2026-05-01 11:23 | -19.57436 | -44.03740 | 6178 ft | 283 kts | 283° |
| 2026-05-01 11:24 | -19.57436 | -44.05844 | 6681 ft | 289 kts | 255° |
| 2026-05-01 11:24 | -19.58347 | -44.07722 | 7166 ft | 288 kts | 226° |
| 2026-05-01 11:24 | -19.61913 | -44.09415 | 8184 ft | 289 kts | 187° |
| 2026-05-01 11:25 | -19.63907 | -44.09724 | 8697 ft | 291 kts | 186° |
| 2026-05-01 11:25 | -19.67814 | -44.10879 | 9692 ft | 297 kts | 202° |
| 2026-05-01 11:25 | -19.69690 | -44.11842 | 10195 ft | 304 kts | 207° |
| 2026-05-01 11:26 | -19.71580 | -44.12982 | 10664 ft | 320 kts | 210° |
| 2026-05-01 11:26 | -19.75457 | -44.15608 | 11584 ft | 333 kts | 213° |
| 2026-05-01 11:26 | -19.77382 | -44.16966 | 12048 ft | 333 kts | 214° |
| 2026-05-01 11:27 | -19.79244 | -44.18439 | 12526 ft | 335 kts | 218° |
| 2026-05-01 11:27 | -19.81088 | -44.19965 | 13012 ft | 337 kts | 218° |
| 2026-05-01 11:27 | -19.82939 | -44.21508 | 13507 ft | 339 kts | 218° |
| 2026-05-01 11:27 | -19.84802 | -44.23068 | 14002 ft | 341 kts | 218° |
| 2026-05-01 11:28 | -19.86647 | -44.24612 | 14447 ft | 343 kts | 218° |
| 2026-05-01 11:28 | -19.88528 | -44.26188 | 14901 ft | 345 kts | 219° |
| 2026-05-01 11:28 | -19.90419 | -44.27772 | 15359 ft | 347 kts | 219° |
| 2026-05-01 11:29 | -19.94238 | -44.30973 | 16290 ft | 352 kts | 219° |
| 2026-05-01 11:29 | -19.96170 | -44.32595 | 16769 ft | 354 kts | 219° |
| 2026-05-01 11:29 | -20.00063 | -44.35862 | 17751 ft | 359 kts | 219° |
| 2026-05-01 11:30 | -20.02033 | -44.37516 | 18260 ft | 361 kts | 219° |
| 2026-05-01 11:30 | -20.04010 | -44.39177 | 18720 ft | 364 kts | 220° |
| 2026-05-01 11:30 | -20.05997 | -44.40846 | 19165 ft | 365 kts | 220° |
| 2026-05-01 11:30 | -20.07964 | -44.42585 | 19304 ft | 363 kts | 221° |
| 2026-05-01 11:31 | -20.09727 | -44.44486 | 19677 ft | 364 kts | 232° |
| 2026-05-01 11:31 | -20.11400 | -44.46554 | 20012 ft | 367 kts | 230° |
| 2026-05-01 11:31 | -20.13043 | -44.48573 | 20852 ft | 355 kts | 231° |
| 2026-05-01 11:31 | -20.14671 | -44.50506 | 21648 ft | 346 kts | 229° |
| 2026-05-01 11:32 | -20.16360 | -44.52304 | 21984 ft | 353 kts | 224° |
| 2026-05-01 11:32 | -20.18295 | -44.54031 | 21908 ft | 371 kts | 218° |
| 2026-05-01 11:32 | -20.20488 | -44.55560 | 21735 ft | 381 kts | 211° |
| 2026-05-01 11:32 | -20.22884 | -44.56779 | 21665 ft | 383 kts | 203° |
| 2026-05-01 11:33 | -20.25401 | -44.57717 | 21599 ft | 380 kts | 203° |
| 2026-05-01 11:33 | -20.27714 | -44.58950 | 22333 ft | 365 kts | 212° |
| 2026-05-01 11:33 | -20.29885 | -44.60357 | 22769 ft | 368 kts | 213° |
| 2026-05-01 11:33 | -20.32147 | -44.61739 | 22730 ft | 380 kts | 213° |
| 2026-05-01 11:34 | -20.34386 | -44.63307 | 22721 ft | 386 kts | 216° |
| 2026-05-01 11:34 | -20.36542 | -44.64922 | 23087 ft | 385 kts | 219° |
| 2026-05-01 11:34 | -20.38626 | -44.66751 | 22862 ft | 382 kts | 223° |
| 2026-05-01 11:34 | -20.40555 | -44.68650 | 23597 ft | 371 kts | 226° |
| 2026-05-01 11:35 | -20.42286 | -44.70674 | 24087 ft | 367 kts | 232° |
| 2026-05-01 11:35 | -20.43932 | -44.72743 | 24554 ft | 365 kts | 230° |
| 2026-05-01 11:35 | -20.45745 | -44.74625 | 24993 ft | 364 kts | 219° |
| 2026-05-01 11:35 | -20.47794 | -44.76185 | 25450 ft | 361 kts | 218° |
| 2026-05-01 11:36 | -20.49825 | -44.77785 | 25708 ft | 364 kts | 219° |
| 2026-05-01 11:36 | -20.51883 | -44.79382 | 25989 ft | 366 kts | 218° |
| 2026-05-01 11:36 | -20.53944 | -44.80988 | 26259 ft | 369 kts | 218° |
| 2026-05-01 11:36 | -20.56025 | -44.82607 | 26547 ft | 371 kts | 218° |
| 2026-05-01 11:37 | -20.58110 | -44.84232 | 26822 ft | 372 kts | 218° |
| 2026-05-01 11:37 | -20.60186 | -44.85852 | 27110 ft | 374 kts | 218° |
| 2026-05-01 11:37 | -20.62289 | -44.87495 | 27403 ft | 375 kts | 218° |
| 2026-05-01 11:37 | -20.64404 | -44.89146 | 27701 ft | 377 kts | 218° |
| 2026-05-01 11:38 | -20.66528 | -44.90811 | 27992 ft | 378 kts | 218° |
| 2026-05-01 11:38 | -20.68652 | -44.92470 | 28277 ft | 379 kts | 219° |
| 2026-05-01 11:38 | -20.70777 | -44.94134 | 28564 ft | 380 kts | 218° |
| 2026-05-01 11:38 | -20.72915 | -44.95801 | 28843 ft | 380 kts | 219° |
| 2026-05-01 11:39 | -20.75044 | -44.97477 | 29116 ft | 381 kts | 219° |
| 2026-05-01 11:39 | -20.77181 | -44.99157 | 29406 ft | 381 kts | 219° |
| 2026-05-01 11:39 | -20.79316 | -45.00836 | 29685 ft | 381 kts | 219° |
| 2026-05-01 11:39 | -20.81430 | -45.02499 | 29871 ft | 384 kts | 219° |
| 2026-05-01 11:40 | -20.83625 | -45.04226 | 29950 ft | 390 kts | 218° |
| 2026-05-01 11:40 | -20.88034 | -45.07699 | 30016 ft | 402 kts | 218° |
| 2026-05-01 11:40 | -20.90296 | -45.09478 | 30150 ft | 406 kts | 219° |
| 2026-05-01 11:41 | -20.92582 | -45.11277 | 30214 ft | 411 kts | 218° |
| 2026-05-01 11:41 | -20.97262 | -45.14963 | 30219 ft | 423 kts | 219° |
| 2026-05-01 11:42 | -21.02067 | -45.18750 | 30215 ft | 435 kts | 218° |
| 2026-05-01 11:42 | -21.06987 | -45.22630 | 30213 ft | 439 kts | 219° |
| 2026-05-01 11:43 | -21.11847 | -45.26469 | 30212 ft | 437 kts | 219° |
| 2026-05-01 11:43 | -21.16744 | -45.30339 | 30187 ft | 437 kts | 219° |
| 2026-05-01 11:44 | -21.24096 | -45.36154 | 30207 ft | 437 kts | 219° |
| 2026-05-01 11:44 | -21.28979 | -45.40021 | 30193 ft | 437 kts | 219° |
| 2026-05-01 11:45 | -21.33835 | -45.43868 | 30206 ft | 437 kts | 219° |
| 2026-05-01 11:45 | -21.38712 | -45.47738 | 30194 ft | 436 kts | 219° |
| 2026-05-01 11:46 | -21.43602 | -45.51620 | 30191 ft | 436 kts | 219° |
| 2026-05-01 11:46 | -21.48466 | -45.55508 | 30196 ft | 436 kts | 218° |
| 2026-05-01 11:47 | -21.53373 | -45.59351 | 30203 ft | 436 kts | 218° |
| 2026-05-01 11:47 | -21.58274 | -45.63198 | 30188 ft | 436 kts | 219° |
| 2026-05-01 11:48 | -21.63150 | -45.67029 | 30195 ft | 436 kts | 219° |
| 2026-05-01 11:48 | -21.68050 | -45.70882 | 30202 ft | 436 kts | 219° |
| 2026-05-01 11:49 | -21.72949 | -45.74738 | 30198 ft | 436 kts | 219° |
| 2026-05-01 11:49 | -21.77840 | -45.78591 | 30201 ft | 435 kts | 219° |
| 2026-05-01 11:50 | -21.82696 | -45.82421 | 30206 ft | 435 kts | 219° |
| 2026-05-01 11:50 | -21.87580 | -45.86275 | 30198 ft | 435 kts | 219° |
| 2026-05-01 11:51 | -21.92466 | -45.90136 | 30207 ft | 435 kts | 219° |
| 2026-05-01 11:51 | -21.97348 | -45.93994 | 30206 ft | 435 kts | 219° |
| 2026-05-01 11:52 | -22.02224 | -45.97850 | 30203 ft | 435 kts | 219° |
| 2026-05-01 11:52 | -22.07107 | -46.01720 | 30199 ft | 435 kts | 219° |
| 2026-05-01 11:53 | -22.11954 | -46.05562 | 30211 ft | 435 kts | 219° |
| 2026-05-01 11:53 | -22.16830 | -46.09431 | 30197 ft | 435 kts | 219° |
| 2026-05-01 11:54 | -22.21697 | -46.13297 | 30218 ft | 434 kts | 219° |
| 2026-05-01 11:54 | -22.26567 | -46.17168 | 30208 ft | 435 kts | 219° |
| 2026-05-01 11:55 | -22.31439 | -46.21039 | 30202 ft | 433 kts | 221° |
| 2026-05-01 11:55 | -22.36184 | -46.25067 | 30195 ft | 433 kts | 221° |
| 2026-05-01 11:56 | -22.40919 | -46.29111 | 30203 ft | 433 kts | 221° |
| 2026-05-01 11:56 | -22.45644 | -46.33151 | 30207 ft | 433 kts | 221° |
| 2026-05-01 11:57 | -22.49574 | -46.36512 | 30198 ft | 433 kts | 221° |
| 2026-05-01 11:57 | -22.55073 | -46.41219 | 30197 ft | 433 kts | 221° |
| 2026-05-01 11:58 | -22.59799 | -46.45267 | 30192 ft | 433 kts | 221° |
| 2026-05-01 11:59 | -22.66882 | -46.51342 | 30207 ft | 433 kts | 221° |
| 2026-05-01 11:59 | -22.71613 | -46.55406 | 30184 ft | 433 kts | 221° |
| 2026-05-01 12:00 | -22.78668 | -46.61470 | 30181 ft | 434 kts | 221° |
| 2026-05-01 12:01 | -22.85742 | -46.67560 | 30198 ft | 433 kts | 222° |
| 2026-05-01 12:01 | -22.90453 | -46.71620 | 30192 ft | 432 kts | 222° |
| 2026-05-01 12:02 | -22.95161 | -46.75681 | 30191 ft | 432 kts | 222° |
| 2026-05-01 12:02 | -22.99864 | -46.79742 | 30204 ft | 432 kts | 221° |
| 2026-05-01 12:03 | -23.04563 | -46.83802 | 30204 ft | 431 kts | 222° |
| 2026-05-01 12:03 | -23.08783 | -46.87453 | 30218 ft | 431 kts | 222° |
| 2026-05-01 12:04 | -23.13446 | -46.91489 | 30213 ft | 431 kts | 222° |
| 2026-05-01 12:04 | -23.18291 | -46.95353 | 30216 ft | 433 kts | 216° |
| 2026-05-01 12:05 | -23.23615 | -46.98486 | 30219 ft | 435 kts | 211° |
| 2026-05-01 12:05 | -23.31701 | -47.02987 | 30196 ft | 435 kts | 211° |
| 2026-05-01 12:06 | -23.37051 | -47.05964 | 30207 ft | 434 kts | 211° |
| 2026-05-01 12:06 | -23.42151 | -47.08810 | 30206 ft | 433 kts | 211° |
| 2026-05-01 12:07 | -23.46611 | -47.11300 | 30186 ft | 433 kts | 211° |
| 2026-05-01 12:07 | -23.51972 | -47.14297 | 30208 ft | 433 kts | 211° |
| 2026-05-01 12:08 | -23.58198 | -47.17780 | 30199 ft | 432 kts | 211° |
| 2026-05-01 12:08 | -23.62675 | -47.20287 | 30208 ft | 431 kts | 211° |
| 2026-05-01 12:09 | -23.67983 | -47.23261 | 30202 ft | 431 kts | 211° |
| 2026-05-01 12:09 | -23.73322 | -47.26257 | 30209 ft | 431 kts | 211° |
| 2026-05-01 12:10 | -23.81312 | -47.30745 | 30209 ft | 430 kts | 211° |
| 2026-05-01 12:11 | -23.89301 | -47.35238 | 30209 ft | 430 kts | 211° |
| 2026-05-01 12:11 | -23.94617 | -47.38231 | 30204 ft | 430 kts | 211° |
| 2026-05-01 12:12 | -23.99895 | -47.41206 | 30203 ft | 429 kts | 212° |
| 2026-05-01 12:12 | -24.05215 | -47.44207 | 30207 ft | 429 kts | 212° |
| 2026-05-01 12:13 | -24.10495 | -47.47232 | 30201 ft | 426 kts | 216° |
| 2026-05-01 12:13 | -24.15526 | -47.50665 | 30177 ft | 425 kts | 217° |
| 2026-05-01 12:14 | -24.20521 | -47.54137 | 30203 ft | 425 kts | 217° |
| 2026-05-01 12:14 | -24.25475 | -47.57587 | 30188 ft | 425 kts | 217° |
| 2026-05-01 12:15 | -24.30468 | -47.61064 | 30196 ft | 425 kts | 217° |
| 2026-05-01 12:15 | -24.35461 | -47.64543 | 30190 ft | 424 kts | 217° |
| 2026-05-01 12:16 | -24.40401 | -47.68088 | 30194 ft | 423 kts | 220° |
| 2026-05-01 12:16 | -24.44947 | -47.72128 | 30197 ft | 419 kts | 226° |
| 2026-05-01 12:17 | -24.49238 | -47.76453 | 30185 ft | 418 kts | 227° |
| 2026-05-01 12:17 | -24.53476 | -47.80775 | 30194 ft | 418 kts | 227° |
| 2026-05-01 12:18 | -24.57737 | -47.85123 | 30193 ft | 418 kts | 227° |
| 2026-05-01 12:18 | -24.61998 | -47.89477 | 30196 ft | 418 kts | 227° |
| 2026-05-01 12:19 | -24.66257 | -47.93833 | 30143 ft | 418 kts | 227° |
| 2026-05-01 12:19 | -24.68384 | -47.96008 | 30029 ft | 418 kts | 227° |
| 2026-05-01 12:19 | -24.70513 | -47.98188 | 29882 ft | 418 kts | 227° |
| 2026-05-01 12:20 | -24.72644 | -48.00370 | 29762 ft | 418 kts | 227° |
| 2026-05-01 12:20 | -24.74780 | -48.02559 | 29642 ft | 418 kts | 227° |
| 2026-05-01 12:20 | -24.76904 | -48.04736 | 29519 ft | 418 kts | 227° |
| 2026-05-01 12:20 | -24.79006 | -48.06893 | 29352 ft | 418 kts | 227° |
| 2026-05-01 12:21 | -24.81134 | -48.09076 | 28819 ft | 418 kts | 227° |
| 2026-05-01 12:21 | -24.83252 | -48.11249 | 28243 ft | 413 kts | 227° |
| 2026-05-01 12:21 | -24.85347 | -48.13405 | 27673 ft | 410 kts | 227° |
| 2026-05-01 12:21 | -24.87428 | -48.15544 | 27168 ft | 407 kts | 227° |
| 2026-05-01 12:22 | -24.89494 | -48.17664 | 26655 ft | 406 kts | 227° |
| 2026-05-01 12:22 | -24.91551 | -48.19781 | 26121 ft | 404 kts | 227° |
| 2026-05-01 12:22 | -24.93607 | -48.21898 | 25631 ft | 403 kts | 227° |
| 2026-05-01 12:22 | -24.95629 | -48.24032 | 25160 ft | 400 kts | 231° |
| 2026-05-01 12:23 | -24.97368 | -48.26397 | 24694 ft | 396 kts | 237° |
| 2026-05-01 12:23 | -24.98937 | -48.28880 | 24243 ft | 394 kts | 240° |
| 2026-05-01 12:23 | -25.00243 | -48.31515 | 23788 ft | 390 kts | 245° |
| 2026-05-01 12:23 | -25.01463 | -48.34141 | 23261 ft | 388 kts | 246° |
| 2026-05-01 12:24 | -25.02655 | -48.36797 | 22730 ft | 385 kts | 246° |
| 2026-05-01 12:24 | -25.03837 | -48.39432 | 22205 ft | 381 kts | 246° |
| 2026-05-01 12:24 | -25.04998 | -48.42040 | 21697 ft | 377 kts | 246° |
| 2026-05-01 12:24 | -25.06157 | -48.44620 | 21184 ft | 374 kts | 246° |
| 2026-05-01 12:25 | -25.07306 | -48.47185 | 20682 ft | 371 kts | 246° |
| 2026-05-01 12:25 | -25.09579 | -48.52263 | 19561 ft | 366 kts | 246° |
| 2026-05-01 12:25 | -25.10697 | -48.54764 | 19014 ft | 362 kts | 245° |
| 2026-05-01 12:26 | -25.11806 | -48.57247 | 18499 ft | 359 kts | 245° |
| 2026-05-01 12:26 | -25.14000 | -48.62136 | 17323 ft | 352 kts | 245° |
| 2026-05-01 12:26 | -25.15075 | -48.64551 | 16743 ft | 350 kts | 246° |
| 2026-05-01 12:27 | -25.16143 | -48.66971 | 16174 ft | 348 kts | 245° |
| 2026-05-01 12:27 | -25.18235 | -48.71700 | 15038 ft | 343 kts | 245° |
| 2026-05-01 12:28 | -25.20219 | -48.76455 | 13916 ft | 339 kts | 252° |
| 2026-05-01 12:28 | -25.20860 | -48.78951 | 13227 ft | 338 kts | 257° |
| 2026-05-01 12:28 | -25.21758 | -48.83973 | 11882 ft | 318 kts | 265° |
| 2026-05-01 12:29 | -25.21931 | -48.86370 | 11212 ft | 306 kts | 266° |
| 2026-05-01 12:29 | -25.22085 | -48.88666 | 10545 ft | 294 kts | 266° |
| 2026-05-01 12:29 | -25.22346 | -48.93161 | 9178 ft | 299 kts | 267° |
| 2026-05-01 12:30 | -25.23596 | -48.97087 | 7981 ft | 311 kts | 228° |
| 2026-05-01 12:30 | -25.25365 | -48.98431 | 7318 ft | 306 kts | 201° |
| 2026-05-01 12:30 | -25.27416 | -48.98751 | 6663 ft | 295 kts | 174° |
| 2026-05-01 12:31 | -25.29381 | -48.98334 | 6190 ft | 276 kts | 168° |
| 2026-05-01 12:31 | -25.31180 | -48.98238 | 6045 ft | 246 kts | 196° |
| 2026-05-01 12:31 | -25.32571 | -48.99089 | 5896 ft | 217 kts | 232° |
| 2026-05-01 12:31 | -25.33171 | -49.00517 | 5558 ft | 201 kts | 264° |
| 2026-05-01 12:32 | -25.33314 | -49.02002 | 5466 ft | 190 kts | 268° |
| 2026-05-01 12:32 | -25.33378 | -49.04895 | 5651 ft | 193 kts | 258° |
| 2026-05-01 12:32 | -25.34046 | -49.06170 | 5799 ft | 197 kts | 225° |
| 2026-05-01 12:33 | -25.34848 | -49.07369 | 5876 ft | 194 kts | 257° |
| 2026-05-01 12:33 | -25.35068 | -49.08823 | 6012 ft | 190 kts | 267° |
| 2026-05-01 12:33 | -25.35148 | -49.10271 | 6201 ft | 188 kts | 269° |
| 2026-05-01 12:33 | -25.35188 | -49.11737 | 6219 ft | 192 kts | 271° |
| 2026-05-01 12:34 | -25.35070 | -49.13173 | 6160 ft | 186 kts | 280° |
| 2026-05-01 12:34 | -25.34864 | -49.14558 | 6084 ft | 178 kts | 281° |
| 2026-05-01 12:34 | -25.34638 | -49.15887 | 6020 ft | 175 kts | 283° |
| 2026-05-01 12:34 | -25.34404 | -49.17210 | 6000 ft | 176 kts | 282° |
| 2026-05-01 12:35 | -25.34165 | -49.18540 | 5986 ft | 176 kts | 283° |
| 2026-05-01 12:35 | -25.33924 | -49.19865 | 6007 ft | 177 kts | 283° |
| 2026-05-01 12:35 | -25.33849 | -49.21219 | 6019 ft | 177 kts | 268° |
| 2026-05-01 12:35 | -25.34081 | -49.22540 | 5999 ft | 180 kts | 245° |
| 2026-05-01 12:36 | -25.34687 | -49.23774 | 6015 ft | 181 kts | 242° |
| 2026-05-01 12:36 | -25.35323 | -49.24973 | 6021 ft | 181 kts | 241° |
| 2026-05-01 12:36 | -25.35976 | -49.26145 | 6009 ft | 181 kts | 240° |
| 2026-05-01 12:36 | -25.36669 | -49.27303 | 5999 ft | 182 kts | 231° |
| 2026-05-01 12:37 | -25.37623 | -49.28221 | 5995 ft | 180 kts | 216° |
| 2026-05-01 12:37 | -25.38674 | -49.28908 | 5981 ft | 172 kts | 210° |
| 2026-05-01 12:37 | -25.39777 | -49.29472 | 5737 ft | 178 kts | 196° |
| 2026-05-01 12:37 | -25.41002 | -49.29667 | 5483 ft | 178 kts | 176° |
| 2026-05-01 12:38 | -25.42164 | -49.29299 | 5219 ft | 173 kts | 145° |
| 2026-05-01 12:38 | -25.43149 | -49.28533 | 4978 ft | 174 kts | 140° |
| 2026-05-01 12:38 | -25.44106 | -49.27715 | 4744 ft | 173 kts | 139° |
| 2026-05-01 12:38 | -25.44997 | -49.26876 | 4580 ft | 169 kts | 137° |
| 2026-05-01 12:39 | -25.45884 | -49.26010 | 4339 ft | 169 kts | 135° |
| 2026-05-01 12:39 | -25.46678 | -49.25165 | 4150 ft | 166 kts | 133° |
| 2026-05-01 12:39 | -25.47448 | -49.24321 | 4068 ft | 161 kts | 133° |
| 2026-05-01 12:39 | -25.48253 | -49.23429 | 4072 ft | 165 kts | 133° |
| 2026-05-01 12:40 | -25.49064 | -49.22513 | 3994 ft | 168 kts | 133° |
| 2026-05-01 12:40 | -25.49876 | -49.21604 | 3772 ft | 165 kts | 133° |
| 2026-05-01 12:40 | -25.50644 | -49.20679 | 3541 ft | 160 kts | 130° |
| 2026-05-01 12:40 | -25.51368 | -49.19748 | 3386 ft | 162 kts | 129° |
| 2026-05-01 12:41 | -25.52087 | -49.18788 | 3096 ft | 158 kts | 128° |
| 2026-05-01 12:41 | -25.52767 | -49.17849 | 3248 ft | 158 kts | 128° |
| 2026-05-01 12:41 | -25.53492 | -49.16882 | 3200 ft | 165 kts | 130° |
| 2026-05-01 12:41 | -25.54204 | -49.15970 | 3292 ft | 152 kts | 130° |
| 2026-05-01 12:42 | -25.54902 | -49.15086 | 3217 ft | 154 kts | 131° |
| 2026-05-01 12:42 | -25.55616 | -49.14191 | 3429 ft | 163 kts | 131° |
| 2026-05-01 12:42 | -25.56412 | -49.13216 | 4084 ft | 177 kts | 131° |
| 2026-05-01 12:42 | -25.57297 | -49.12245 | 4877 ft | 183 kts | 142° |
| 2026-05-01 12:43 | -25.58323 | -49.11316 | 5382 ft | 206 kts | 133° |
| 2026-05-01 12:43 | -25.59462 | -49.10250 | 6057 ft | 221 kts | 145° |
| 2026-05-01 12:43 | -25.60812 | -49.09135 | 6014 ft | 274 kts | 138° |
| 2026-05-01 12:43 | -25.62254 | -49.07528 | 5419 ft | 300 kts | 132° |
| 2026-05-01 12:44 | -25.63672 | -49.05800 | 4831 ft | 304 kts | 131° |
| 2026-05-01 12:44 | -25.65050 | -49.04075 | 4432 ft | 300 kts | 130° |
| 2026-05-01 12:44 | -25.67657 | -49.00761 | 4721 ft | 275 kts | 130° |
| 2026-05-01 12:45 | -25.69548 | -48.97197 | 4903 ft | 274 kts | 92° |
| 2026-05-01 12:45 | -25.69219 | -48.95165 | 4954 ft | 269 kts | 61° |
| 2026-05-01 12:45 | -25.67995 | -48.93651 | 4966 ft | 267 kts | 30° |
| 2026-05-01 12:46 | -25.66246 | -48.93101 | 4962 ft | 265 kts | 358° |
| 2026-05-01 12:46 | -25.64504 | -48.93689 | 4975 ft | 266 kts | 326° |
| 2026-05-01 12:46 | -25.63305 | -48.95235 | 5001 ft | 269 kts | 297° |
| 2026-05-01 12:46 | -25.62581 | -48.97150 | 4996 ft | 270 kts | 292° |
| 2026-05-01 12:47 | -25.61924 | -48.99096 | 4984 ft | 270 kts | 291° |
| 2026-05-01 12:47 | -25.61253 | -49.01047 | 4986 ft | 270 kts | 292° |
| 2026-05-01 12:47 | -25.60490 | -49.02928 | 4978 ft | 267 kts | 303° |
| 2026-05-01 12:47 | -25.59373 | -49.04574 | 5001 ft | 268 kts | 312° |
| 2026-05-01 12:48 | -25.58087 | -49.06061 | 4999 ft | 266 kts | 317° |
| 2026-05-01 12:48 | -25.56708 | -49.07418 | 5007 ft | 266 kts | 321° |
| 2026-05-01 12:48 | -25.55266 | -49.08709 | 5006 ft | 267 kts | 323° |
| 2026-05-01 12:48 | -25.53796 | -49.09965 | 5011 ft | 266 kts | 323° |
| 2026-05-01 12:49 | -25.52307 | -49.11140 | 5009 ft | 266 kts | 328° |
| 2026-05-01 12:49 | -25.50709 | -49.12223 | 5005 ft | 266 kts | 329° |
| 2026-05-01 12:49 | -25.49144 | -49.13267 | 5007 ft | 265 kts | 330° |
| 2026-05-01 12:49 | -25.47556 | -49.14309 | 5004 ft | 265 kts | 330° |
| 2026-05-01 12:50 | -25.46095 | -49.15533 | 4991 ft | 267 kts | 310° |
| 2026-05-01 12:50 | -25.45060 | -49.17233 | 4959 ft | 266 kts | 310° |
| 2026-05-01 12:50 | -25.43802 | -49.18748 | 4987 ft | 266 kts | 320° |
| 2026-05-01 12:50 | -25.42249 | -49.19831 | 4997 ft | 264 kts | 339° |
| 2026-05-01 12:51 | -25.40470 | -49.20300 | 4967 ft | 263 kts | 351° |
| 2026-05-01 12:51 | -25.38679 | -49.20725 | 4952 ft | 263 kts | 346° |
| 2026-05-01 12:51 | -25.35310 | -49.21773 | 4994 ft | 232 kts | 337° |
| 2026-05-01 12:52 | -25.34162 | -49.22879 | 4953 ft | 214 kts | 303° |
| 2026-05-01 12:52 | -25.33533 | -49.25726 | 4863 ft | 186 kts | 246° |
| 2026-05-01 12:52 | -25.34371 | -49.26748 | 4683 ft | 180 kts | 214° |
| 2026-05-01 12:53 | -25.36481 | -49.28027 | 4831 ft | 172 kts | 207° |
| 2026-05-01 12:53 | -25.37562 | -49.28611 | 4895 ft | 173 kts | 207° |
| 2026-05-01 12:53 | -25.38647 | -49.29199 | 4913 ft | 174 kts | 210° |
| 2026-05-01 12:54 | -25.39791 | -49.29905 | 4107 ft | 206 kts | 209° |
| 2026-05-01 12:54 | -25.42595 | -49.30551 | 3635 ft | 192 kts | 169° |
| 2026-05-01 12:54 | -25.43762 | -49.30044 | 3679 ft | 171 kts | 144° |
| 2026-05-01 12:55 | -25.45260 | -49.28240 | 3737 ft | 158 kts | 121° |
| 2026-05-01 12:55 | -25.45831 | -49.27201 | 3849 ft | 162 kts | 118° |
| 2026-05-01 12:55 | -25.46396 | -49.26137 | 3989 ft | 160 kts | 118° |
| 2026-05-01 12:56 | -25.46963 | -49.25067 | 4101 ft | 161 kts | 118° |
| 2026-05-01 12:56 | -25.47613 | -49.24059 | 4189 ft | 162 kts | 128° |
| 2026-05-01 12:56 | -25.48341 | -49.23143 | 4370 ft | 155 kts | 130° |
| 2026-05-01 12:56 | -25.48827 | -49.22568 | 4492 ft | 156 kts | 130° |
| 2026-05-01 12:57 | -25.49579 | -49.21696 | 4514 ft | 157 kts | 131° |
| 2026-05-01 12:57 | -25.51083 | -49.19962 | 3915 ft | 157 kts | 131° |
| 2026-05-01 12:57 | -25.51802 | -49.19083 | 3408 ft | 151 kts | 130° |
| 2026-05-01 12:58 | -25.52337 | -49.18199 | 3405 ft | 135 kts | 116° |
| 2026-05-01 12:58 | -25.52914 | -49.16797 | 3579 ft | 177 kts | 113° |
| 2026-05-01 12:58 | -25.53324 | -49.15970 | 3707 ft | 181 kts | 121° |
| 2026-05-01 12:59 | -25.54879 | -49.13499 | 4052 ft | 209 kts | 124° |
| 2026-05-01 12:59 | -25.55816 | -49.12184 | 4136 ft | 234 kts | 128° |
| 2026-05-01 12:59 | -25.57951 | -49.09274 | 4599 ft | 261 kts | 128° |
| 2026-05-01 13:00 | -25.60361 | -49.05925 | 4667 ft | 267 kts | 127° |
| 2026-05-01 13:00 | -25.61321 | -49.04277 | 4813 ft | 244 kts | 112° |
| 2026-05-01 13:01 | -25.61721 | -49.00809 | 4891 ft | 225 kts | 75° |
| 2026-05-01 13:01 | -25.61176 | -48.99202 | 4956 ft | 224 kts | 60° |
| 2026-05-01 13:01 | -25.59622 | -48.96234 | 4998 ft | 224 kts | 57° |
| 2026-05-01 13:02 | -25.58808 | -48.94768 | 4998 ft | 223 kts | 56° |